sensor_id;sensor_type;location;lat;lon;timestamp;P1;durP1;ratioP1;P2;durP2;ratioP2
77544;SDS011;66672;50.328;7.610;2023-11-21T00:00:26;21.08;;;19.58;;
77544;SDS011;66672;50.328;7.610;2023-11-21T00:02:52;21.02;;;19.52;;
77544;SDS011;66672;50.328;7.610;2023-11-21T00:05:17;20.30;;;19.00;;
77544;SDS011;66672;50.328;7.610;2023-11-21T00:07:42;20.85;;;19.25;;
77544;SDS011;66672;50.328;7.610;2023-11-21T00:10:08;21.10;;;19.63;;
77544;SDS011;66672;50.328;7.610;2023-11-21T00:12:34;20.73;;;19.13;;
77544;SDS011;66672;50.328;7.610;2023-11-21T00:14:59;21.23;;;19.70;;
77544;SDS011;66672;50.328;7.610;2023-11-21T00:17:24;20.52;;;19.13;;
77544;SDS011;66672;50.328;7.610;2023-11-21T00:19:50;21.40;;;19.90;;
77544;SDS011;66672;50.328;7.610;2023-11-21T00:22:17;20.20;;;18.70;;
77544;SDS011;66672;50.328;7.610;2023-11-21T00:24:42;20.88;;;19.38;;
77544;SDS011;66672;50.328;7.610;2023-11-21T00:27:07;20.45;;;19.05;;
77544;SDS011;66672;50.328;7.610;2023-11-21T00:29:32;21.25;;;19.73;;
77544;SDS011;66672;50.328;7.610;2023-11-21T00:31:57;21.15;;;19.30;;
77544;SDS011;66672;50.328;7.610;2023-11-21T00:34:23;20.52;;;19.13;;
77544;SDS011;66672;50.328;7.610;2023-11-21T00:36:48;21.33;;;19.63;;
77544;SDS011;66672;50.328;7.610;2023-11-21T00:39:13;20.77;;;19.17;;
77544;SDS011;66672;50.328;7.610;2023-11-21T00:41:38;21.45;;;19.85;;
77544;SDS011;66672;50.328;7.610;2023-11-21T00:44:04;20.10;;;18.55;;
77544;SDS011;66672;50.328;7.610;2023-11-21T00:46:29;21.05;;;19.65;;
77544;SDS011;66672;50.328;7.610;2023-11-21T00:48:54;20.10;;;18.70;;
77544;SDS011;66672;50.328;7.610;2023-11-21T00:51:20;22.05;;;20.23;;
77544;SDS011;66672;50.328;7.610;2023-11-21T00:53:45;20.50;;;19.08;;
77544;SDS011;66672;50.328;7.610;2023-11-21T00:56:11;21.27;;;19.30;;
77544;SDS011;66672;50.328;7.610;2023-11-21T00:58:36;21.25;;;19.63;;
77544;SDS011;66672;50.328;7.610;2023-11-21T01:01:02;20.50;;;19.15;;
77544;SDS011;66672;50.328;7.610;2023-11-21T01:03:28;21.48;;;20.08;;
77544;SDS011;66672;50.328;7.610;2023-11-21T01:05:53;20.67;;;19.17;;
77544;SDS011;66672;50.328;7.610;2023-11-21T01:08:18;21.23;;;19.83;;
77544;SDS011;66672;50.328;7.610;2023-11-21T01:10:44;19.70;;;18.38;;
77544;SDS011;66672;50.328;7.610;2023-11-21T01:13:10;21.00;;;19.60;;
77544;SDS011;66672;50.328;7.610;2023-11-21T01:15:35;20.50;;;18.75;;
77544;SDS011;66672;50.328;7.610;2023-11-21T01:18:00;21.38;;;19.88;;
77544;SDS011;66672;50.328;7.610;2023-11-21T01:20:26;21.05;;;19.38;;
77544;SDS011;66672;50.328;7.610;2023-11-21T01:22:51;21.88;;;20.23;;
77544;SDS011;66672;50.328;7.610;2023-11-21T01:25:16;21.63;;;20.17;;
77544;SDS011;66672;50.328;7.610;2023-11-21T01:27:42;22.30;;;20.52;;
77544;SDS011;66672;50.328;7.610;2023-11-21T01:30:08;22.40;;;20.80;;
77544;SDS011;66672;50.328;7.610;2023-11-21T01:32:35;22.90;;;21.02;;
77544;SDS011;66672;50.328;7.610;2023-11-21T01:35:00;23.65;;;21.88;;
77544;SDS011;66672;50.328;7.610;2023-11-21T01:37:25;23.40;;;21.42;;
77544;SDS011;66672;50.328;7.610;2023-11-21T01:39:53;23.65;;;21.95;;
77544;SDS011;66672;50.328;7.610;2023-11-21T01:42:18;23.65;;;21.67;;
77544;SDS011;66672;50.328;7.610;2023-11-21T01:44:43;24.00;;;22.08;;
77544;SDS011;66672;50.328;7.610;2023-11-21T01:47:08;23.02;;;21.25;;
77544;SDS011;66672;50.328;7.610;2023-11-21T01:49:34;23.08;;;21.48;;
77544;SDS011;66672;50.328;7.610;2023-11-21T01:51:59;23.75;;;22.00;;
77544;SDS011;66672;50.328;7.610;2023-11-21T01:54:25;22.80;;;21.20;;
77544;SDS011;66672;50.328;7.610;2023-11-21T01:56:50;23.30;;;21.50;;
77544;SDS011;66672;50.328;7.610;2023-11-21T01:59:17;23.27;;;21.48;;
77544;SDS011;66672;50.328;7.610;2023-11-21T02:01:43;23.10;;;21.40;;
77544;SDS011;66672;50.328;7.610;2023-11-21T02:04:08;23.83;;;22.02;;
77544;SDS011;66672;50.328;7.610;2023-11-21T02:06:34;23.20;;;21.38;;
77544;SDS011;66672;50.328;7.610;2023-11-21T02:09:00;22.50;;;20.80;;
77544;SDS011;66672;50.328;7.610;2023-11-21T02:11:25;23.58;;;21.60;;
77544;SDS011;66672;50.328;7.610;2023-11-21T02:13:50;22.40;;;20.63;;
77544;SDS011;66672;50.328;7.610;2023-11-21T02:16:18;24.30;;;22.25;;
77544;SDS011;66672;50.328;7.610;2023-11-21T02:18:44;23.98;;;22.02;;
77544;SDS011;66672;50.328;7.610;2023-11-21T02:21:09;25.20;;;23.02;;
77544;SDS011;66672;50.328;7.610;2023-11-21T02:23:35;24.88;;;22.65;;
77544;SDS011;66672;50.328;7.610;2023-11-21T02:26:00;25.48;;;23.38;;
77544;SDS011;66672;50.328;7.610;2023-11-21T02:28:29;24.05;;;22.08;;
77544;SDS011;66672;50.328;7.610;2023-11-21T02:30:54;25.70;;;23.60;;
77544;SDS011;66672;50.328;7.610;2023-11-21T02:33:24;24.02;;;22.20;;
77544;SDS011;66672;50.328;7.610;2023-11-21T02:35:49;26.10;;;23.80;;
77544;SDS011;66672;50.328;7.610;2023-11-21T02:38:14;24.95;;;22.83;;
77544;SDS011;66672;50.328;7.610;2023-11-21T02:40:40;26.65;;;24.17;;
77544;SDS011;66672;50.328;7.610;2023-11-21T02:43:06;25.08;;;23.00;;
77544;SDS011;66672;50.328;7.610;2023-11-21T02:45:31;25.77;;;23.80;;
77544;SDS011;66672;50.328;7.610;2023-11-21T02:47:56;25.85;;;23.58;;
77544;SDS011;66672;50.328;7.610;2023-11-21T02:50:22;25.95;;;23.58;;
77544;SDS011;66672;50.328;7.610;2023-11-21T02:52:47;27.00;;;24.40;;
77544;SDS011;66672;50.328;7.610;2023-11-21T02:55:12;26.08;;;23.83;;
77544;SDS011;66672;50.328;7.610;2023-11-21T02:57:38;26.33;;;24.13;;
77544;SDS011;66672;50.328;7.610;2023-11-21T03:00:03;26.42;;;23.95;;
77544;SDS011;66672;50.328;7.610;2023-11-21T03:02:32;26.38;;;23.65;;
77544;SDS011;66672;50.328;7.610;2023-11-21T03:04:57;26.52;;;24.30;;
77544;SDS011;66672;50.328;7.610;2023-11-21T03:07:22;26.48;;;23.92;;
77544;SDS011;66672;50.328;7.610;2023-11-21T03:09:47;25.42;;;23.20;;
77544;SDS011;66672;50.328;7.610;2023-11-21T03:12:12;26.55;;;24.17;;
77544;SDS011;66672;50.328;7.610;2023-11-21T03:14:39;24.85;;;22.55;;
77544;SDS011;66672;50.328;7.610;2023-11-21T03:17:04;26.30;;;23.80;;
77544;SDS011;66672;50.328;7.610;2023-11-21T03:19:29;25.25;;;23.08;;
77544;SDS011;66672;50.328;7.610;2023-11-21T03:21:55;26.63;;;24.23;;
77544;SDS011;66672;50.328;7.610;2023-11-21T03:24:20;25.50;;;23.38;;
77544;SDS011;66672;50.328;7.610;2023-11-21T03:26:45;25.90;;;23.50;;
77544;SDS011;66672;50.328;7.610;2023-11-21T03:29:11;25.05;;;22.95;;
77544;SDS011;66672;50.328;7.610;2023-11-21T03:31:36;27.15;;;24.80;;
77544;SDS011;66672;50.328;7.610;2023-11-21T03:34:02;25.70;;;23.48;;
77544;SDS011;66672;50.328;7.610;2023-11-21T03:36:27;25.80;;;23.40;;
77544;SDS011;66672;50.328;7.610;2023-11-21T03:38:52;24.60;;;22.67;;
77544;SDS011;66672;50.328;7.610;2023-11-21T03:41:17;25.17;;;22.98;;
77544;SDS011;66672;50.328;7.610;2023-11-21T03:43:42;25.40;;;23.30;;
77544;SDS011;66672;50.328;7.610;2023-11-21T03:46:07;25.42;;;23.30;;
77544;SDS011;66672;50.328;7.610;2023-11-21T03:48:33;26.13;;;23.98;;
77544;SDS011;66672;50.328;7.610;2023-11-21T03:50:58;24.60;;;22.60;;
77544;SDS011;66672;50.328;7.610;2023-11-21T03:53:23;24.77;;;22.88;;
77544;SDS011;66672;50.328;7.610;2023-11-21T03:55:48;25.88;;;23.45;;
77544;SDS011;66672;50.328;7.610;2023-11-21T03:58:15;25.27;;;23.17;;
77544;SDS011;66672;50.328;7.610;2023-11-21T04:00:40;23.80;;;21.80;;
77544;SDS011;66672;50.328;7.610;2023-11-21T04:03:05;25.02;;;23.08;;
77544;SDS011;66672;50.328;7.610;2023-11-21T04:05:30;23.42;;;21.42;;
77544;SDS011;66672;50.328;7.610;2023-11-21T04:07:56;24.20;;;22.30;;
77544;SDS011;66672;50.328;7.610;2023-11-21T04:10:21;22.95;;;21.25;;
77544;SDS011;66672;50.328;7.610;2023-11-21T04:12:47;23.85;;;21.90;;
77544;SDS011;66672;50.328;7.610;2023-11-21T04:15:13;22.50;;;20.67;;
77544;SDS011;66672;50.328;7.610;2023-11-21T04:17:39;22.60;;;20.90;;
77544;SDS011;66672;50.328;7.610;2023-11-21T04:20:05;22.05;;;20.40;;
77544;SDS011;66672;50.328;7.610;2023-11-21T04:22:33;22.42;;;20.55;;
77544;SDS011;66672;50.328;7.610;2023-11-21T04:24:59;22.52;;;20.75;;
77544;SDS011;66672;50.328;7.610;2023-11-21T04:27:24;23.30;;;21.60;;
77544;SDS011;66672;50.328;7.610;2023-11-21T04:29:49;22.13;;;20.52;;
77544;SDS011;66672;50.328;7.610;2023-11-21T04:32:15;22.65;;;20.95;;
77544;SDS011;66672;50.328;7.610;2023-11-21T04:34:41;22.60;;;20.90;;
77544;SDS011;66672;50.328;7.610;2023-11-21T04:37:06;22.42;;;20.70;;
77544;SDS011;66672;50.328;7.610;2023-11-21T04:39:31;21.80;;;20.15;;
77544;SDS011;66672;50.328;7.610;2023-11-21T04:41:56;21.60;;;20.10;;
77544;SDS011;66672;50.328;7.610;2023-11-21T04:44:21;21.83;;;20.17;;
77544;SDS011;66672;50.328;7.610;2023-11-21T04:46:47;21.30;;;19.70;;
77544;SDS011;66672;50.328;7.610;2023-11-21T04:49:12;21.77;;;20.08;;
77544;SDS011;66672;50.328;7.610;2023-11-21T04:51:37;21.83;;;20.33;;
77544;SDS011;66672;50.328;7.610;2023-11-21T04:54:02;21.38;;;19.88;;
77544;SDS011;66672;50.328;7.610;2023-11-21T04:56:27;21.38;;;19.88;;
77544;SDS011;66672;50.328;7.610;2023-11-21T04:58:53;21.23;;;19.73;;
77544;SDS011;66672;50.328;7.610;2023-11-21T05:01:18;21.75;;;20.05;;
77544;SDS011;66672;50.328;7.610;2023-11-21T05:03:43;21.15;;;19.75;;
77544;SDS011;66672;50.328;7.610;2023-11-21T05:06:12;20.98;;;19.38;;
77544;SDS011;66672;50.328;7.610;2023-11-21T05:08:37;21.88;;;20.27;;
77544;SDS011;66672;50.328;7.610;2023-11-21T05:11:02;21.80;;;20.20;;
77544;SDS011;66672;50.328;7.610;2023-11-21T05:13:28;21.50;;;20.00;;
77544;SDS011;66672;50.328;7.610;2023-11-21T05:15:54;21.50;;;19.92;;
77544;SDS011;66672;50.328;7.610;2023-11-21T05:18:19;21.38;;;19.98;;
77544;SDS011;66672;50.328;7.610;2023-11-21T05:20:44;20.98;;;19.52;;
77544;SDS011;66672;50.328;7.610;2023-11-21T05:23:09;22.05;;;20.50;;
77544;SDS011;66672;50.328;7.610;2023-11-21T05:25:35;20.95;;;19.55;;
77544;SDS011;66672;50.328;7.610;2023-11-21T05:28:00;21.45;;;19.90;;
77544;SDS011;66672;50.328;7.610;2023-11-21T05:30:26;22.02;;;20.42;;
77544;SDS011;66672;50.328;7.610;2023-11-21T05:32:52;22.35;;;20.20;;
77544;SDS011;66672;50.328;7.610;2023-11-21T05:35:17;22.08;;;20.52;;
77544;SDS011;66672;50.328;7.610;2023-11-21T05:37:42;21.88;;;20.17;;
77544;SDS011;66672;50.328;7.610;2023-11-21T05:40:08;22.00;;;20.33;;
77544;SDS011;66672;50.328;7.610;2023-11-21T05:42:33;21.10;;;19.50;;
77544;SDS011;66672;50.328;7.610;2023-11-21T05:44:59;21.30;;;19.90;;
77544;SDS011;66672;50.328;7.610;2023-11-21T05:47:34;21.80;;;20.10;;
77544;SDS011;66672;50.328;7.610;2023-11-21T05:50:00;20.75;;;19.35;;
77544;SDS011;66672;50.328;7.610;2023-11-21T05:52:26;20.92;;;19.33;;
77544;SDS011;66672;50.328;7.610;2023-11-21T05:54:51;20.92;;;19.38;;
77544;SDS011;66672;50.328;7.610;2023-11-21T05:57:16;21.83;;;20.23;;
77544;SDS011;66672;50.328;7.610;2023-11-21T05:59:42;21.80;;;20.05;;
77544;SDS011;66672;50.328;7.610;2023-11-21T06:02:07;21.23;;;19.58;;
77544;SDS011;66672;50.328;7.610;2023-11-21T06:04:32;21.75;;;20.20;;
77544;SDS011;66672;50.328;7.610;2023-11-21T06:06:58;21.75;;;20.05;;
77544;SDS011;66672;50.328;7.610;2023-11-21T06:09:23;21.05;;;19.45;;
77544;SDS011;66672;50.328;7.610;2023-11-21T06:11:49;21.67;;;20.08;;
77544;SDS011;66672;50.328;7.610;2023-11-21T06:14:14;21.60;;;20.00;;
77544;SDS011;66672;50.328;7.610;2023-11-21T06:16:42;22.27;;;20.58;;
77544;SDS011;66672;50.328;7.610;2023-11-21T06:19:10;22.42;;;20.40;;
77544;SDS011;66672;50.328;7.610;2023-11-21T06:21:35;21.42;;;19.65;;
77544;SDS011;66672;50.328;7.610;2023-11-21T06:24:00;21.60;;;20.00;;
77544;SDS011;66672;50.328;7.610;2023-11-21T06:26:26;21.70;;;19.90;;
77544;SDS011;66672;50.328;7.610;2023-11-21T06:28:52;21.73;;;19.90;;
77544;SDS011;66672;50.328;7.610;2023-11-21T06:31:17;22.13;;;20.42;;
77544;SDS011;66672;50.328;7.610;2023-11-21T06:33:43;21.05;;;19.55;;
77544;SDS011;66672;50.328;7.610;2023-11-21T06:36:08;22.38;;;20.63;;
77544;SDS011;66672;50.328;7.610;2023-11-21T06:38:33;22.30;;;20.60;;
77544;SDS011;66672;50.328;7.610;2023-11-21T06:40:59;22.27;;;20.63;;
77544;SDS011;66672;50.328;7.610;2023-11-21T06:43:28;21.33;;;19.83;;
77544;SDS011;66672;50.328;7.610;2023-11-21T06:45:53;22.15;;;20.40;;
77544;SDS011;66672;50.328;7.610;2023-11-21T06:48:19;21.98;;;20.35;;
77544;SDS011;66672;50.328;7.610;2023-11-21T06:50:44;22.63;;;21.00;;
77544;SDS011;66672;50.328;7.610;2023-11-21T06:53:09;22.10;;;20.23;;
77544;SDS011;66672;50.328;7.610;2023-11-21T06:55:35;22.40;;;20.70;;
77544;SDS011;66672;50.328;7.610;2023-11-21T06:58:00;22.80;;;20.90;;
77544;SDS011;66672;50.328;7.610;2023-11-21T07:00:26;22.05;;;20.25;;
77544;SDS011;66672;50.328;7.610;2023-11-21T07:02:52;22.45;;;20.75;;
77544;SDS011;66672;50.328;7.610;2023-11-21T07:05:18;23.02;;;21.20;;
77544;SDS011;66672;50.328;7.610;2023-11-21T07:07:45;24.30;;;22.38;;
77544;SDS011;66672;50.328;7.610;2023-11-21T07:10:11;23.58;;;21.67;;
77544;SDS011;66672;50.328;7.610;2023-11-21T07:12:36;23.25;;;21.50;;
77544;SDS011;66672;50.328;7.610;2023-11-21T07:15:02;22.35;;;20.63;;
77544;SDS011;66672;50.328;7.610;2023-11-21T07:17:27;24.05;;;21.92;;
77544;SDS011;66672;50.328;7.610;2023-11-21T07:19:52;24.55;;;22.08;;
77544;SDS011;66672;50.328;7.610;2023-11-21T07:22:18;24.35;;;22.42;;
77544;SDS011;66672;50.328;7.610;2023-11-21T07:24:49;24.13;;;22.13;;
77544;SDS011;66672;50.328;7.610;2023-11-21T07:27:15;23.45;;;21.50;;
77544;SDS011;66672;50.328;7.610;2023-11-21T07:29:41;24.10;;;22.10;;
77544;SDS011;66672;50.328;7.610;2023-11-21T07:32:06;23.77;;;21.70;;
77544;SDS011;66672;50.328;7.610;2023-11-21T07:34:31;23.00;;;21.23;;
77544;SDS011;66672;50.328;7.610;2023-11-21T07:36:56;24.65;;;22.50;;
77544;SDS011;66672;50.328;7.610;2023-11-21T07:39:21;24.77;;;22.63;;
77544;SDS011;66672;50.328;7.610;2023-11-21T07:41:47;25.63;;;23.33;;
77544;SDS011;66672;50.328;7.610;2023-11-21T07:44:13;25.58;;;23.27;;
77544;SDS011;66672;50.328;7.610;2023-11-21T07:46:39;25.80;;;23.42;;
77544;SDS011;66672;50.328;7.610;2023-11-21T07:49:05;26.52;;;24.10;;
77544;SDS011;66672;50.328;7.610;2023-11-21T07:51:30;27.38;;;24.65;;
77544;SDS011;66672;50.328;7.610;2023-11-21T07:53:55;31.17;;;26.17;;
77544;SDS011;66672;50.328;7.610;2023-11-21T07:56:21;30.10;;;27.05;;
77544;SDS011;66672;50.328;7.610;2023-11-21T07:58:46;30.35;;;27.25;;
77544;SDS011;66672;50.328;7.610;2023-11-21T08:01:11;33.40;;;27.70;;
77544;SDS011;66672;50.328;7.610;2023-11-21T08:03:36;31.10;;;27.77;;
77544;SDS011;66672;50.328;7.610;2023-11-21T08:06:02;32.70;;;29.38;;
77544;SDS011;66672;50.328;7.610;2023-11-21T08:08:30;32.55;;;29.08;;
77544;SDS011;66672;50.328;7.610;2023-11-21T08:10:55;32.50;;;28.98;;
77544;SDS011;66672;50.328;7.610;2023-11-21T08:13:25;33.00;;;29.27;;
77544;SDS011;66672;50.328;7.610;2023-11-21T08:15:50;33.25;;;29.58;;
77544;SDS011;66672;50.328;7.610;2023-11-21T08:18:18;34.58;;;29.00;;
77544;SDS011;66672;50.328;7.610;2023-11-21T08:20:44;34.65;;;29.60;;
77544;SDS011;66672;50.328;7.610;2023-11-21T08:23:12;35.65;;;30.85;;
77544;SDS011;66672;50.328;7.610;2023-11-21T08:25:37;35.70;;;29.75;;
77544;SDS011;66672;50.328;7.610;2023-11-21T08:28:03;40.28;;;30.30;;
77544;SDS011;66672;50.328;7.610;2023-11-21T08:30:30;35.80;;;29.60;;
77544;SDS011;66672;50.328;7.610;2023-11-21T08:32:55;36.85;;;31.70;;
77544;SDS011;66672;50.328;7.610;2023-11-21T08:35:23;38.42;;;31.73;;
77544;SDS011;66672;50.328;7.610;2023-11-21T08:37:48;38.03;;;30.88;;
77544;SDS011;66672;50.328;7.610;2023-11-21T08:40:13;35.28;;;30.73;;
77544;SDS011;66672;50.328;7.610;2023-11-21T08:42:41;35.55;;;30.63;;
77544;SDS011;66672;50.328;7.610;2023-11-21T08:45:07;40.55;;;32.15;;
77544;SDS011;66672;50.328;7.610;2023-11-21T08:47:33;39.45;;;30.92;;
77544;SDS011;66672;50.328;7.610;2023-11-21T08:49:59;41.25;;;30.52;;
77544;SDS011;66672;50.328;7.610;2023-11-21T08:52:24;36.20;;;30.52;;
77544;SDS011;66672;50.328;7.610;2023-11-21T08:54:49;37.17;;;31.58;;
77544;SDS011;66672;50.328;7.610;2023-11-21T08:57:21;40.70;;;32.35;;
77544;SDS011;66672;50.328;7.610;2023-11-21T08:59:46;37.80;;;30.77;;
77544;SDS011;66672;50.328;7.610;2023-11-21T09:02:11;41.90;;;31.58;;
77544;SDS011;66672;50.328;7.610;2023-11-21T09:04:36;40.08;;;31.27;;
77544;SDS011;66672;50.328;7.610;2023-11-21T09:07:02;38.40;;;31.10;;
77544;SDS011;66672;50.328;7.610;2023-11-21T09:09:28;40.20;;;30.63;;
77544;SDS011;66672;50.328;7.610;2023-11-21T09:11:54;36.28;;;30.83;;
77544;SDS011;66672;50.328;7.610;2023-11-21T09:14:20;36.05;;;30.00;;
77544;SDS011;66672;50.328;7.610;2023-11-21T09:16:45;40.65;;;30.73;;
77544;SDS011;66672;50.328;7.610;2023-11-21T09:19:10;38.00;;;30.70;;
77544;SDS011;66672;50.328;7.610;2023-11-21T09:21:36;37.40;;;29.60;;
77544;SDS011;66672;50.328;7.610;2023-11-21T09:24:02;40.28;;;30.65;;
77544;SDS011;66672;50.328;7.610;2023-11-21T09:26:27;39.83;;;30.40;;
77544;SDS011;66672;50.328;7.610;2023-11-21T09:28:54;35.22;;;30.30;;
77544;SDS011;66672;50.328;7.610;2023-11-21T09:31:21;35.85;;;30.50;;
77544;SDS011;66672;50.328;7.610;2023-11-21T09:33:47;35.42;;;29.77;;
77544;SDS011;66672;50.328;7.610;2023-11-21T09:36:13;37.17;;;30.45;;
77544;SDS011;66672;50.328;7.610;2023-11-21T09:38:41;41.75;;;31.10;;
77544;SDS011;66672;50.328;7.610;2023-11-21T09:41:11;38.17;;;31.17;;
77544;SDS011;66672;50.328;7.610;2023-11-21T09:43:42;38.92;;;30.67;;
77544;SDS011;66672;50.328;7.610;2023-11-21T09:46:07;40.63;;;31.33;;
77544;SDS011;66672;50.328;7.610;2023-11-21T09:48:35;41.13;;;30.67;;
77544;SDS011;66672;50.328;7.610;2023-11-21T09:51:01;37.03;;;30.35;;
77544;SDS011;66672;50.328;7.610;2023-11-21T09:53:28;36.13;;;30.02;;
77544;SDS011;66672;50.328;7.610;2023-11-21T09:55:55;42.33;;;31.35;;
77544;SDS011;66672;50.328;7.610;2023-11-21T09:58:21;38.72;;;29.35;;
77544;SDS011;66672;50.328;7.610;2023-11-21T10:00:49;36.45;;;31.00;;
77544;SDS011;66672;50.328;7.610;2023-11-21T10:03:15;35.80;;;30.67;;
77544;SDS011;66672;50.328;7.610;2023-11-21T10:05:41;36.53;;;30.77;;
77544;SDS011;66672;50.328;7.610;2023-11-21T10:08:08;42.45;;;30.88;;
77544;SDS011;66672;50.328;7.610;2023-11-21T10:10:35;40.95;;;31.00;;
77544;SDS011;66672;50.328;7.610;2023-11-21T10:13:01;37.40;;;30.20;;
77544;SDS011;66672;50.328;7.610;2023-11-21T10:15:27;37.85;;;31.40;;
77544;SDS011;66672;50.328;7.610;2023-11-21T10:17:53;38.10;;;28.20;;
77544;SDS011;66672;50.328;7.610;2023-11-21T10:20:20;34.83;;;29.35;;
77544;SDS011;66672;50.328;7.610;2023-11-21T10:22:45;32.50;;;27.60;;
77544;SDS011;66672;50.328;7.610;2023-11-21T10:25:10;37.83;;;28.83;;
77544;SDS011;66672;50.328;7.610;2023-11-21T10:27:37;30.48;;;27.25;;
77544;SDS011;66672;50.328;7.610;2023-11-21T10:30:04;34.75;;;28.13;;
77544;SDS011;66672;50.328;7.610;2023-11-21T10:32:29;30.92;;;27.55;;
77544;SDS011;66672;50.328;7.610;2023-11-21T10:35:01;36.35;;;29.15;;
77544;SDS011;66672;50.328;7.610;2023-11-21T10:37:31;33.60;;;28.00;;
77544;SDS011;66672;50.328;7.610;2023-11-21T10:39:59;35.25;;;27.70;;
77544;SDS011;66672;50.328;7.610;2023-11-21T10:42:24;29.67;;;26.33;;
77544;SDS011;66672;50.328;7.610;2023-11-21T10:44:50;30.30;;;26.63;;
77544;SDS011;66672;50.328;7.610;2023-11-21T10:47:15;32.83;;;26.92;;
77544;SDS011;66672;50.328;7.610;2023-11-21T10:49:40;31.02;;;26.63;;
77544;SDS011;66672;50.328;7.610;2023-11-21T10:52:06;35.90;;;28.60;;
77544;SDS011;66672;50.328;7.610;2023-11-21T10:54:31;31.83;;;28.42;;
77544;SDS011;66672;50.328;7.610;2023-11-21T10:56:56;31.38;;;26.67;;
77544;SDS011;66672;50.328;7.610;2023-11-21T10:59:22;31.92;;;27.02;;
77544;SDS011;66672;50.328;7.610;2023-11-21T11:01:50;35.72;;;27.50;;
77544;SDS011;66672;50.328;7.610;2023-11-21T11:04:17;32.47;;;27.45;;
77544;SDS011;66672;50.328;7.610;2023-11-21T11:06:43;31.10;;;27.73;;
77544;SDS011;66672;50.328;7.610;2023-11-21T11:09:10;30.27;;;27.30;;
77544;SDS011;66672;50.328;7.610;2023-11-21T11:11:37;36.85;;;28.88;;
77544;SDS011;66672;50.328;7.610;2023-11-21T11:14:05;33.05;;;28.48;;
77544;SDS011;66672;50.328;7.610;2023-11-21T11:16:31;34.33;;;28.05;;
77544;SDS011;66672;50.328;7.610;2023-11-21T11:18:57;29.52;;;26.23;;
77544;SDS011;66672;50.328;7.610;2023-11-21T11:21:43;28.98;;;25.88;;
77544;SDS011;66672;50.328;7.610;2023-11-21T11:29:35;34.40;;;27.98;;
77544;SDS011;66672;50.328;7.610;2023-11-21T11:34:30;31.40;;;27.85;;
77544;SDS011;66672;50.328;7.610;2023-11-21T11:37:00;36.83;;;30.00;;
77544;SDS011;66672;50.328;7.610;2023-11-21T11:39:37;33.28;;;27.90;;
77544;SDS011;66672;50.328;7.610;2023-11-21T11:42:03;36.97;;;29.52;;
77544;SDS011;66672;50.328;7.610;2023-11-21T11:47:16;33.95;;;28.17;;
77544;SDS011;66672;50.328;7.610;2023-11-21T11:52:31;32.55;;;29.13;;
77544;SDS011;66672;50.328;7.610;2023-11-21T11:54:57;31.35;;;27.95;;
77544;SDS011;66672;50.328;7.610;2023-11-21T11:57:26;35.63;;;29.95;;
77544;SDS011;66672;50.328;7.610;2023-11-21T12:02:41;30.92;;;27.67;;
77544;SDS011;66672;50.328;7.610;2023-11-21T12:05:08;30.98;;;27.30;;
77544;SDS011;66672;50.328;7.610;2023-11-21T12:07:53;30.90;;;27.60;;
77544;SDS011;66672;50.328;7.610;2023-11-21T12:10:22;34.50;;;27.23;;
77544;SDS011;66672;50.328;7.610;2023-11-21T12:12:50;31.45;;;27.77;;
77544;SDS011;66672;50.328;7.610;2023-11-21T12:15:17;32.65;;;27.80;;
77544;SDS011;66672;50.328;7.610;2023-11-21T12:17:43;33.60;;;28.00;;
77544;SDS011;66672;50.328;7.610;2023-11-21T12:20:08;32.92;;;28.77;;
77544;SDS011;66672;50.328;7.610;2023-11-21T12:22:43;31.85;;;28.38;;
77544;SDS011;66672;50.328;7.610;2023-11-21T12:25:08;31.48;;;28.08;;
77544;SDS011;66672;50.328;7.610;2023-11-21T12:27:33;31.05;;;27.77;;
77544;SDS011;66672;50.328;7.610;2023-11-21T12:29:58;29.30;;;26.15;;
77544;SDS011;66672;50.328;7.610;2023-11-21T12:32:24;30.90;;;27.52;;
77544;SDS011;66672;50.328;7.610;2023-11-21T12:34:50;33.25;;;27.58;;
77544;SDS011;66672;50.328;7.610;2023-11-21T12:37:15;30.85;;;27.67;;
77544;SDS011;66672;50.328;7.610;2023-11-21T12:39:42;31.92;;;27.85;;
77544;SDS011;66672;50.328;7.610;2023-11-21T12:42:07;31.20;;;27.48;;
77544;SDS011;66672;50.328;7.610;2023-11-21T12:44:32;39.00;;;28.13;;
77544;SDS011;66672;50.328;7.610;2023-11-21T12:46:57;30.98;;;27.75;;
77544;SDS011;66672;50.328;7.610;2023-11-21T12:49:24;34.05;;;28.80;;
77544;SDS011;66672;50.328;7.610;2023-11-21T12:51:49;34.28;;;28.92;;
77544;SDS011;66672;50.328;7.610;2023-11-21T12:54:14;37.97;;;28.38;;
77544;SDS011;66672;50.328;7.610;2023-11-21T12:56:40;34.33;;;27.40;;
77544;SDS011;66672;50.328;7.610;2023-11-21T12:59:05;29.45;;;26.25;;
77544;SDS011;66672;50.328;7.610;2023-11-21T13:01:31;30.70;;;26.38;;
77544;SDS011;66672;50.328;7.610;2023-11-21T13:03:57;28.75;;;25.65;;
77544;SDS011;66672;50.328;7.610;2023-11-21T13:06:22;29.00;;;25.88;;
77544;SDS011;66672;50.328;7.610;2023-11-21T13:08:50;29.13;;;25.77;;
77544;SDS011;66672;50.328;7.610;2023-11-21T13:11:15;28.60;;;25.55;;
77544;SDS011;66672;50.328;7.610;2023-11-21T13:13:43;28.27;;;25.58;;
77544;SDS011;66672;50.328;7.610;2023-11-21T13:16:11;28.50;;;25.52;;
77544;SDS011;66672;50.328;7.610;2023-11-21T13:18:36;29.20;;;26.20;;
77544;SDS011;66672;50.328;7.610;2023-11-21T13:21:03;29.27;;;26.25;;
77544;SDS011;66672;50.328;7.610;2023-11-21T13:23:35;30.00;;;26.45;;
77544;SDS011;66672;50.328;7.610;2023-11-21T13:26:01;29.88;;;26.88;;
77544;SDS011;66672;50.328;7.610;2023-11-21T13:28:29;28.92;;;25.77;;
77544;SDS011;66672;50.328;7.610;2023-11-21T13:30:57;29.60;;;26.45;;
77544;SDS011;66672;50.328;7.610;2023-11-21T13:33:27;30.75;;;26.27;;
77544;SDS011;66672;50.328;7.610;2023-11-21T13:35:53;30.23;;;26.92;;
77544;SDS011;66672;50.328;7.610;2023-11-21T13:38:21;29.92;;;26.75;;
77544;SDS011;66672;50.328;7.610;2023-11-21T13:40:51;30.17;;;26.25;;
77544;SDS011;66672;50.328;7.610;2023-11-21T13:43:19;30.23;;;26.80;;
77544;SDS011;66672;50.328;7.610;2023-11-21T13:45:45;34.75;;;27.48;;
77544;SDS011;66672;50.328;7.610;2023-11-21T13:48:11;29.50;;;26.08;;
77544;SDS011;66672;50.328;7.610;2023-11-21T13:50:41;28.90;;;26.02;;
77544;SDS011;66672;50.328;7.610;2023-11-21T13:53:20;28.70;;;25.73;;
77544;SDS011;66672;50.328;7.610;2023-11-21T13:55:48;28.10;;;25.08;;
77544;SDS011;66672;50.328;7.610;2023-11-21T13:58:14;30.75;;;25.95;;
77544;SDS011;66672;50.328;7.610;2023-11-21T14:00:44;29.58;;;25.40;;
77544;SDS011;66672;50.328;7.610;2023-11-21T14:03:11;27.90;;;25.02;;
77544;SDS011;66672;50.328;7.610;2023-11-21T14:05:47;29.75;;;26.55;;
77544;SDS011;66672;50.328;7.610;2023-11-21T14:08:16;28.55;;;25.63;;
77544;SDS011;66672;50.328;7.610;2023-11-21T14:10:45;30.90;;;26.20;;
77544;SDS011;66672;50.328;7.610;2023-11-21T14:13:15;29.80;;;26.80;;
77544;SDS011;66672;50.328;7.610;2023-11-21T14:15:42;29.63;;;25.70;;
77544;SDS011;66672;50.328;7.610;2023-11-21T14:18:10;37.22;;;29.27;;
77544;SDS011;66672;50.328;7.610;2023-11-21T14:20:36;28.23;;;25.33;;
77544;SDS011;66672;50.328;7.610;2023-11-21T14:23:02;46.03;;;34.95;;
77544;SDS011;66672;50.328;7.610;2023-11-21T14:25:28;36.13;;;29.15;;
77544;SDS011;66672;50.328;7.610;2023-11-21T14:27:53;29.23;;;26.15;;
77544;SDS011;66672;50.328;7.610;2023-11-21T14:30:18;34.47;;;26.83;;